Terminal Aerodrome Forecast
Issued by NWS Memphis, TN

Home | Current Version | Previous Version | Text Only | Print | Product List | Glossary On
Versions: 1 2 3 4 5 6 7 8 9 10 11 12 13 14 15 16
881
FTUS44 KMEG 281133
TAFMKL
TAF
KMKL 281133Z 2812/2912 22002KT P6SM -SHRA BKN009 OVC025
      TEMPO 2812/2816 6SM -RA SCT010 BKN020
     FM281600 25008KT P6SM VCTS SCT035CB BKN050
     FM282100 26009KT P6SM VCSH SCT035 BKN060
     FM290000 20005KT P6SM SCT025 BKN200=

USA.gov is the U.S. government's official web portal to all federal, state and local government web resources and services.